createdAt,value
2022-08-02T00:00:39.536Z,8.73
2022-08-02T00:03:07.168Z,6.75
2022-08-02T00:05:34.840Z,6.72
2022-08-02T00:08:02.534Z,7.97
2022-08-02T00:10:30.434Z,3.47
2022-08-02T00:12:58.549Z,3.20
2022-08-02T00:15:26.538Z,6.15
2022-08-02T00:17:54.160Z,5.72
2022-08-02T00:20:21.732Z,5.50
2022-08-02T00:22:49.303Z,10.60
2022-08-02T00:25:16.823Z,9.55
2022-08-02T00:27:44.402Z,10.77
2022-08-02T00:30:12.328Z,9.40
2022-08-02T00:32:39.957Z,7.30
2022-08-02T00:35:08.191Z,10.18
2022-08-02T00:37:39.652Z,11.32
2022-08-02T00:40:08.674Z,6.28
2022-08-02T00:42:36.245Z,7.43
2022-08-02T00:45:04.536Z,13.60
2022-08-02T00:47:32.170Z,6.93
2022-08-02T00:49:59.915Z,5.10
2022-08-02T00:52:27.630Z,3.65
2022-08-02T00:54:55.162Z,5.47
2022-08-02T00:57:22.830Z,6.90
2022-08-02T00:59:50.352Z,8.25
2022-08-02T01:02:17.970Z,3.05
2022-08-02T01:04:45.899Z,7.88
2022-08-02T01:07:14.649Z,7.20
2022-08-02T01:09:43.029Z,4.25
2022-08-02T01:12:11.662Z,8.93
2022-08-02T01:14:42.186Z,5.55
2022-08-02T01:17:24.201Z,8.88
2022-08-02T01:20:21.158Z,5.78
2022-08-02T01:23:12.021Z,5.10
2022-08-02T01:26:08.867Z,11.00
2022-08-02T01:28:49.435Z,7.18
2022-08-02T01:31:31.033Z,5.32
2022-08-02T01:34:17.311Z,8.07
2022-08-02T01:36:49.844Z,3.40
2022-08-02T01:39:26.937Z,8.75
2022-08-02T01:42:02.109Z,7.75
2022-08-02T01:44:34.616Z,7.80
2022-08-02T01:47:09.431Z,5.60
2022-08-02T01:49:39.480Z,5.63
2022-08-02T01:52:21.648Z,6.03
2022-08-02T01:55:03.426Z,5.40
2022-08-02T01:57:42.114Z,5.60
2022-08-02T02:00:11.563Z,6.78
2022-08-02T02:02:42.748Z,8.30
2022-08-02T02:05:17.524Z,6.32
2022-08-02T02:07:47.017Z,6.45
2022-08-02T02:10:17.899Z,8.80
2022-08-02T02:12:49.482Z,5.22
2022-08-02T02:15:17.924Z,5.38
2022-08-02T02:18:10.879Z,5.97
2022-08-02T02:20:35.420Z,3.47
2022-08-02T02:23:03.137Z,4.32
2022-08-02T02:25:35.700Z,5.32
2022-08-02T02:28:11.985Z,6.63
2022-08-02T02:30:45.691Z,4.95
2022-08-02T02:33:14.477Z,6.30
2022-08-02T02:35:43.223Z,7.57
2022-08-02T02:38:14.093Z,3.65
2022-08-02T02:40:43.784Z,4.15
2022-08-02T02:43:12.995Z,3.10
2022-08-02T02:45:41.704Z,3.78
2022-08-02T02:48:10.452Z,9.40
2022-08-02T02:50:39.076Z,6.97
2022-08-02T02:53:07.461Z,6.97
2022-08-02T02:55:35.263Z,6.28
2022-08-02T02:58:03.474Z,5.75
2022-08-02T03:00:49.690Z,6.78
2022-08-02T03:03:21.247Z,4.47
2022-08-02T03:05:49.669Z,4.75
2022-08-02T03:08:17.321Z,6.93
2022-08-02T03:10:47.911Z,7.50
2022-08-02T03:13:16.188Z,5.22
2022-08-02T03:15:46.617Z,9.18
2022-08-02T03:18:37.002Z,5.70
2022-08-02T03:21:07.887Z,4.30
2022-08-02T03:23:36.029Z,4.68
2022-08-02T03:26:03.878Z,4.15
2022-08-02T03:28:31.487Z,1.52
2022-08-02T03:30:59.013Z,1.55
2022-08-02T03:33:27.582Z,0.80
2022-08-02T03:35:58.718Z,3.15
2022-08-02T03:38:29.178Z,1.30
2022-08-02T03:40:57.980Z,1.02
2022-08-02T03:43:28.873Z,3.75
2022-08-02T03:45:58.948Z,1.45
2022-08-02T03:48:34.405Z,1.48
2022-08-02T03:51:03.544Z,1.88
2022-08-02T03:53:32.494Z,3.42
2022-08-02T03:56:01.098Z,2.15
2022-08-02T03:58:28.690Z,0.80
2022-08-02T04:00:57.804Z,1.63
2022-08-02T04:03:26.200Z,1.70
2022-08-02T04:06:03.198Z,0.90
2022-08-02T04:08:38.065Z,0.80
2022-08-02T04:11:25.295Z,0.70
2022-08-02T04:13:56.795Z,2.08
2022-08-02T04:16:45.681Z,2.95
2022-08-02T04:19:22.777Z,0.50
2022-08-02T04:21:53.255Z,0.65
2022-08-02T04:24:25.276Z,1.85
2022-08-02T04:26:57.966Z,0.77
2022-08-02T04:29:36.409Z,1.73
2022-08-02T04:32:05.650Z,2.10
2022-08-02T04:34:33.247Z,2.03
2022-08-02T04:37:01.216Z,1.67
2022-08-02T04:39:28.736Z,1.40
2022-08-02T04:41:57.942Z,1.30
2022-08-02T04:44:26.149Z,0.75
2022-08-02T04:46:54.686Z,0.88
2022-08-02T04:49:22.321Z,3.33
2022-08-02T04:51:49.997Z,1.58
2022-08-02T04:54:17.526Z,1.65
2022-08-02T04:56:45.107Z,0.90
2022-08-02T04:59:13.245Z,1.27
2022-08-02T05:01:42.505Z,1.33
2022-08-02T05:04:10.158Z,0.60
2022-08-02T05:06:37.830Z,0.90
2022-08-02T05:09:05.492Z,1.02
2022-08-02T05:11:36.075Z,1.23
2022-08-02T05:14:05.580Z,0.75
2022-08-02T05:16:33.265Z,0.75
2022-08-02T05:19:02.297Z,2.92
2022-08-02T05:21:31.967Z,0.55
2022-08-02T05:23:59.612Z,0.55
2022-08-02T05:26:27.186Z,1.77
2022-08-02T05:28:54.687Z,1.48
2022-08-02T05:31:22.558Z,0.60
2022-08-02T05:33:50.076Z,0.57
2022-08-02T05:36:17.774Z,1.45
2022-08-02T05:38:49.743Z,0.50
2022-08-02T05:41:19.440Z,0.55
2022-08-02T05:43:47.846Z,0.98
2022-08-02T05:46:15.478Z,0.98
2022-08-02T05:48:45.004Z,0.40
2022-08-02T05:51:22.506Z,0.55
2022-08-02T05:53:51.447Z,0.52
2022-08-02T05:56:53.669Z,0.45
2022-08-02T05:59:37.494Z,1.20
2022-08-02T06:02:23.842Z,0.55
2022-08-02T06:05:05.798Z,0.50
2022-08-02T06:07:36.234Z,0.55
2022-08-02T06:10:08.106Z,0.80
2022-08-02T06:13:01.083Z,1.13
2022-08-02T06:15:29.401Z,3.47
2022-08-02T06:17:58.055Z,3.08
2022-08-02T06:20:27.797Z,1.85
2022-08-02T06:22:58.909Z,4.63
2022-08-02T06:25:50.372Z,2.55
2022-08-02T06:28:17.028Z,0.90
2022-08-02T06:30:45.017Z,0.90
2022-08-02T06:33:13.749Z,1.92
2022-08-02T06:35:56.653Z,1.67
2022-08-02T06:38:32.531Z,4.57
2022-08-02T06:41:09.122Z,3.63
2022-08-02T06:44:08.953Z,2.00
2022-08-02T06:47:09.970Z,2.33
2022-08-02T06:49:52.020Z,2.30
2022-08-02T06:52:29.352Z,3.42
2022-08-02T06:55:02.465Z,4.45
2022-08-02T06:57:31.052Z,1.77
2022-08-02T07:00:01.834Z,1.60
2022-08-02T07:02:30.897Z,2.30
2022-08-02T07:04:58.925Z,1.20
2022-08-02T07:07:27.156Z,2.85
2022-08-02T07:10:00.130Z,3.15
2022-08-02T07:12:30.891Z,1.52
2022-08-02T07:15:03.723Z,2.78
2022-08-02T07:17:31.430Z,2.97
2022-08-02T07:19:59.811Z,3.35
2022-08-02T07:22:28.505Z,2.55
2022-08-02T07:24:58.662Z,4.78
2022-08-02T07:27:27.423Z,3.50
2022-08-02T07:29:54.925Z,2.75
2022-08-02T07:32:24.903Z,3.72
2022-08-02T07:34:55.131Z,2.20
2022-08-02T07:37:36.041Z,2.58
2022-08-02T07:40:15.347Z,2.63
2022-08-02T07:42:49.083Z,2.85
2022-08-02T07:45:16.850Z,4.03
2022-08-02T07:47:45.221Z,1.70
2022-08-02T07:50:14.522Z,8.32
2022-08-02T07:52:42.947Z,1.38
2022-08-02T07:55:11.677Z,2.53
2022-08-02T07:57:45.391Z,2.88
2022-08-02T08:00:15.182Z,2.03
2022-08-02T08:02:42.976Z,1.83
2022-08-02T08:05:11.087Z,1.65
2022-08-02T08:07:39.547Z,1.15
2022-08-02T08:10:08.205Z,1.10
2022-08-02T08:12:36.071Z,1.48
2022-08-02T08:15:04.522Z,1.70
2022-08-02T08:17:32.076Z,2.42
2022-08-02T08:19:59.632Z,3.10
2022-08-02T08:22:27.415Z,1.27
2022-08-02T08:24:54.949Z,0.70
2022-08-02T08:27:23.211Z,0.70
2022-08-02T08:29:51.018Z,5.10
2022-08-02T08:32:19.528Z,0.50
2022-08-02T08:34:47.976Z,0.57
2022-08-02T08:37:17.693Z,0.63
2022-08-02T08:39:57.514Z,0.85
2022-08-02T08:42:27.572Z,1.42
2022-08-02T08:44:56.798Z,0.60
2022-08-02T08:47:34.426Z,2.83
2022-08-02T08:50:17.894Z,0.40
2022-08-02T08:53:04.267Z,2.50
2022-08-02T08:55:33.761Z,1.35
2022-08-02T08:58:02.511Z,0.63
2022-08-02T09:00:31.493Z,0.45
2022-08-02T09:03:02.226Z,0.40
2022-08-02T09:05:29.929Z,0.82
2022-08-02T09:07:57.427Z,2.17
2022-08-02T09:10:45.864Z,1.08
2022-08-02T09:13:38.019Z,0.85
2022-08-02T09:16:14.939Z,0.25
2022-08-02T09:18:46.356Z,0.28
2022-08-02T09:21:16.445Z,0.35
2022-08-02T09:23:47.221Z,0.88
2022-08-02T09:26:18.724Z,0.28
2022-08-02T09:28:50.307Z,0.28
2022-08-02T09:31:23.319Z,0.63
2022-08-02T09:34:01.100Z,1.48
2022-08-02T09:36:39.163Z,0.47
2022-08-02T09:39:10.749Z,1.95
2022-08-02T09:41:41.405Z,0.40
2022-08-02T09:44:16.078Z,0.30
2022-08-02T09:46:45.953Z,0.38
2022-08-02T09:49:16.655Z,0.38
2022-08-02T09:51:47.562Z,0.17
2022-08-02T09:54:23.949Z,0.28
2022-08-02T09:56:57.150Z,0.25
2022-08-02T09:59:26.056Z,0.10
2022-08-02T10:01:58.983Z,0.40
2022-08-02T10:04:34.493Z,0.00
2022-08-02T10:07:21.645Z,1.20
2022-08-02T10:09:51.955Z,0.10
2022-08-02T10:12:23.292Z,0.52
2022-08-02T10:14:52.132Z,0.10
2022-08-02T10:17:20.993Z,0.20
2022-08-02T10:20:01.143Z,0.80
2022-08-02T10:22:34.045Z,0.22
2022-08-02T10:25:04.462Z,0.57
2022-08-02T10:27:55.184Z,0.15
2022-08-02T10:30:23.532Z,0.98
2022-08-02T10:32:54.117Z,0.30
2022-08-02T10:35:25.806Z,0.03
2022-08-02T10:38:03.394Z,0.05
2022-08-02T10:40:52.880Z,0.28
2022-08-02T10:43:32.563Z,0.30
2022-08-02T10:46:20.308Z,0.10
2022-08-02T10:49:23.903Z,0.17
2022-08-02T10:52:02.369Z,0.38
2022-08-02T10:54:36.364Z,0.20
2022-08-02T10:57:18.494Z,0.15
2022-08-02T10:59:46.899Z,0.73
2022-08-02T11:02:32.447Z,0.10
2022-08-02T11:05:00.017Z,0.17
2022-08-02T11:07:47.458Z,0.00
2022-08-02T11:10:37.069Z,0.10
2022-08-02T11:13:15.986Z,0.35
2022-08-02T11:16:05.488Z,0.55
2022-08-02T11:18:44.851Z,0.40
2022-08-02T11:21:30.253Z,0.00
2022-08-02T11:24:24.545Z,0.27
2022-08-02T11:26:52.335Z,0.85
2022-08-02T11:29:20.553Z,0.75
2022-08-02T11:31:48.568Z,0.10
2022-08-02T11:34:28.481Z,0.10
2022-08-02T11:37:05.145Z,0.20
2022-08-02T11:39:32.750Z,1.85
2022-08-02T11:42:01.335Z,1.23
2022-08-02T11:44:30.580Z,0.90
2022-08-02T11:47:01.028Z,0.35
2022-08-02T11:49:29.407Z,0.20
2022-08-02T11:52:06.408Z,0.57
2022-08-02T11:54:37.122Z,0.20
2022-08-02T11:57:22.463Z,1.27
2022-08-02T11:59:55.137Z,1.85
2022-08-02T12:02:35.713Z,0.77
2022-08-02T12:05:09.083Z,2.05
2022-08-02T12:07:46.236Z,0.45
2022-08-02T12:10:19.801Z,0.30
2022-08-02T12:12:49.060Z,3.15
2022-08-02T12:15:44.693Z,0.20
2022-08-02T12:18:37.455Z,1.17
2022-08-02T12:21:25.429Z,1.50
2022-08-02T12:24:00.176Z,1.58
2022-08-02T12:26:29.269Z,0.52
2022-08-02T12:28:59.980Z,0.65
2022-08-02T12:31:57.572Z,0.40
2022-08-02T12:34:29.943Z,0.50
2022-08-02T12:37:05.843Z,0.30
2022-08-02T12:39:40.742Z,1.95
2022-08-02T12:42:11.592Z,1.65
2022-08-02T12:44:55.720Z,0.20
2022-08-02T12:47:23.546Z,1.08
2022-08-02T12:50:21.561Z,0.20
2022-08-02T12:52:49.754Z,0.22
2022-08-02T12:55:21.580Z,0.70
2022-08-02T12:57:55.041Z,0.20
2022-08-02T13:00:40.683Z,1.35
2022-08-02T13:04:08.002Z,0.80
2022-08-02T13:06:01.276Z,1.02
2022-08-02T13:08:35.083Z,1.30
2022-08-02T13:11:02.612Z,0.20
2022-08-02T13:13:30.147Z,0.50
2022-08-02T13:15:59.204Z,0.22
2022-08-02T13:18:27.257Z,1.35
2022-08-02T13:20:59.184Z,3.53
2022-08-02T13:23:53.843Z,0.95
2022-08-02T13:26:15.785Z,0.25
2022-08-02T13:28:43.322Z,0.45
2022-08-02T13:31:35.436Z,0.52
2022-08-02T13:33:58.498Z,0.82
2022-08-02T13:36:26.106Z,1.17
2022-08-02T13:38:53.666Z,0.20
2022-08-02T13:41:21.192Z,0.30
2022-08-02T13:43:52.578Z,0.73
2022-08-02T13:46:28.766Z,2.15
2022-08-02T13:48:57.420Z,0.40
2022-08-02T13:51:24.960Z,1.25
2022-08-02T13:53:52.546Z,0.00
2022-08-02T13:56:20.075Z,0.43
2022-08-02T13:59:54.696Z,0.30
2022-08-02T14:01:52.202Z,0.32
2022-08-02T14:04:19.807Z,1.27
2022-08-02T14:06:47.376Z,0.28
2022-08-02T14:09:15.669Z,0.95
2022-08-02T14:11:45.775Z,1.70
2022-08-02T14:14:16.433Z,0.30
2022-08-02T14:16:45.836Z,0.47
2022-08-02T14:19:15.623Z,0.55
2022-08-02T14:21:46.933Z,0.35
2022-08-02T14:24:20.216Z,0.50
2022-08-02T14:26:48.584Z,0.98
2022-08-02T14:29:17.047Z,0.40
2022-08-02T14:31:45.267Z,0.98
2022-08-02T14:34:13.616Z,2.05
2022-08-02T14:36:41.254Z,1.35
2022-08-02T14:39:09.265Z,0.63
2022-08-02T14:41:59.943Z,1.30
2022-08-02T14:44:25.043Z,0.70
2022-08-02T14:46:52.996Z,1.02
2022-08-02T14:49:24.591Z,1.00
2022-08-02T14:51:54.827Z,0.80
2022-08-02T14:54:28.165Z,0.93
2022-08-02T14:57:00.662Z,0.75
2022-08-02T14:59:28.578Z,0.60
2022-08-02T15:01:56.213Z,1.38
2022-08-02T15:04:24.333Z,1.45
2022-08-02T15:06:51.988Z,0.82
2022-08-02T15:09:19.841Z,0.50
2022-08-02T15:11:49.162Z,0.47
2022-08-02T15:14:22.288Z,0.68
2022-08-02T15:16:57.952Z,4.03
2022-08-02T15:19:42.418Z,2.00
2022-08-02T15:22:16.989Z,0.70
2022-08-02T15:24:48.723Z,1.48
2022-08-02T15:27:17.133Z,2.45
2022-08-02T15:29:46.131Z,0.70
2022-08-02T15:32:14.740Z,3.90
2022-08-02T15:34:42.638Z,0.80
2022-08-02T15:37:10.140Z,2.45
2022-08-02T15:39:37.766Z,4.80
2022-08-02T15:42:05.433Z,1.55
2022-08-02T15:44:33.079Z,1.00
2022-08-02T15:47:01.092Z,0.77
2022-08-02T15:49:28.803Z,0.80
2022-08-02T15:51:56.546Z,0.90
2022-08-02T15:54:24.167Z,0.80
2022-08-02T15:56:51.742Z,0.60
2022-08-02T15:59:19.335Z,1.15
2022-08-02T16:01:49.916Z,0.80
2022-08-02T16:04:17.593Z,2.15
2022-08-02T16:06:45.350Z,0.60
2022-08-02T16:09:12.976Z,0.65
2022-08-02T16:11:40.628Z,2.38
2022-08-02T16:14:08.226Z,1.95
2022-08-02T16:16:37.015Z,0.77
2022-08-02T16:19:45.684Z,2.30
2022-08-02T16:21:54.669Z,2.88
2022-08-02T16:24:22.291Z,0.68
2022-08-02T16:26:49.845Z,1.27
2022-08-02T16:29:18.952Z,0.93
2022-08-02T16:31:50.151Z,0.75
2022-08-02T16:34:18.196Z,1.23
2022-08-02T16:36:46.163Z,0.70
2022-08-02T16:39:13.723Z,0.82
2022-08-02T16:41:52.073Z,0.68
2022-08-02T16:44:28.955Z,0.90
2022-08-02T16:47:01.937Z,1.00
2022-08-02T16:50:04.721Z,0.82
2022-08-02T16:52:19.220Z,2.50
2022-08-02T16:54:49.401Z,1.83
2022-08-02T16:57:20.775Z,2.10
2022-08-02T16:59:57.793Z,1.05
2022-08-02T17:02:27.940Z,3.30
2022-08-02T17:04:56.675Z,1.00
2022-08-02T17:08:10.490Z,2.53
2022-08-02T17:10:12.452Z,1.92
2022-08-02T17:12:40.244Z,2.03
2022-08-02T17:16:08.100Z,2.25
2022-08-02T17:17:57.486Z,3.65
2022-08-02T17:20:25.064Z,1.35
2022-08-02T17:22:53.342Z,3.22
2022-08-02T17:25:22.637Z,1.35
2022-08-02T17:27:55.985Z,1.60
2022-08-02T17:30:26.435Z,0.80
2022-08-02T17:32:57.842Z,0.82
2022-08-02T17:35:43.544Z,1.55
2022-08-02T17:38:26.070Z,1.58
2022-08-02T17:40:56.195Z,1.15
2022-08-02T17:43:29.028Z,1.15
2022-08-02T17:46:01.976Z,1.75
2022-08-02T17:48:50.020Z,1.92
2022-08-02T17:52:16.080Z,1.20
2022-08-02T17:54:05.699Z,1.70
2022-08-02T17:56:33.964Z,0.70
2022-08-02T17:59:31.037Z,0.88
2022-08-02T18:02:11.120Z,1.35
2022-08-02T18:04:39.245Z,1.95
2022-08-02T18:07:09.860Z,1.55
2022-08-02T18:09:43.294Z,1.60
2022-08-02T18:12:14.644Z,0.98
2022-08-02T18:14:46.080Z,4.15
2022-08-02T18:17:17.255Z,1.00
2022-08-02T18:19:53.978Z,3.13
2022-08-02T18:22:27.752Z,1.88
2022-08-02T18:24:55.332Z,0.50
2022-08-02T18:27:23.009Z,1.95
2022-08-02T18:30:04.058Z,1.60
2022-08-02T18:33:54.516Z,0.77
2022-08-02T18:35:20.634Z,0.65
2022-08-02T18:37:56.687Z,0.80
2022-08-02T18:40:25.091Z,0.68
2022-08-02T18:42:53.800Z,1.95
2022-08-02T18:45:22.017Z,1.02
2022-08-02T18:47:51.362Z,0.60
2022-08-02T18:50:19.943Z,1.70
2022-08-02T18:52:48.132Z,0.90
2022-08-02T18:55:16.381Z,0.95
2022-08-02T18:58:17.565Z,1.25
2022-08-02T19:00:32.781Z,1.10
2022-08-02T19:03:00.406Z,0.88
2022-08-02T19:05:53.095Z,0.88
2022-08-02T19:08:19.357Z,1.42
2022-08-02T19:10:56.286Z,1.05
2022-08-02T19:13:25.088Z,1.77
2022-08-02T19:15:53.122Z,0.95
2022-08-02T19:18:27.031Z,1.40
2022-08-02T19:21:05.140Z,2.70
2022-08-02T19:23:33.513Z,2.58
2022-08-02T19:26:02.336Z,1.52
2022-08-02T19:28:31.547Z,0.85
2022-08-02T19:31:00.960Z,1.67
2022-08-02T19:34:06.711Z,1.13
2022-08-02T19:36:17.121Z,1.00
2022-08-02T19:38:45.623Z,1.17
2022-08-02T19:41:16.896Z,2.15
2022-08-02T19:44:25.770Z,1.38
2022-08-02T19:46:37.862Z,1.73
2022-08-02T19:49:16.637Z,2.60
2022-08-02T19:51:54.960Z,0.82
2022-08-02T19:54:54.562Z,1.50
2022-08-02T19:57:17.054Z,1.30
2022-08-02T19:59:47.447Z,1.48
2022-08-02T20:02:18.530Z,1.02
2022-08-02T20:04:50.213Z,1.67
2022-08-02T20:07:54.639Z,2.35
2022-08-02T20:10:11.303Z,2.17
2022-08-02T20:12:40.421Z,3.08
2022-08-02T20:15:14.734Z,1.77
2022-08-02T20:17:47.502Z,0.73
2022-08-02T20:20:15.501Z,1.10
2022-08-02T20:23:01.853Z,3.55
2022-08-02T20:25:53.985Z,0.93
2022-08-02T20:28:22.350Z,0.80
2022-08-02T20:30:50.376Z,0.80
2022-08-02T20:33:22.080Z,1.33
2022-08-02T20:35:53.347Z,1.17
2022-08-02T20:38:24.988Z,1.15
2022-08-02T20:40:57.525Z,1.88
2022-08-02T20:43:31.070Z,1.70
2022-08-02T20:46:00.527Z,1.80
2022-08-02T20:48:30.257Z,1.80
2022-08-02T20:50:57.984Z,1.17
2022-08-02T20:53:30.068Z,0.80
2022-08-02T20:55:57.910Z,1.05
2022-08-02T20:58:27.092Z,1.20
2022-08-02T21:00:59.812Z,1.23
2022-08-02T21:03:39.276Z,0.90
2022-08-02T21:06:17.074Z,2.10
2022-08-02T21:08:46.082Z,2.40
2022-08-02T21:11:14.307Z,0.88
2022-08-02T21:13:47.297Z,2.45
2022-08-02T21:16:29.718Z,4.65
2022-08-02T21:19:00.105Z,2.47
2022-08-02T21:21:29.646Z,1.48
2022-08-02T21:24:00.060Z,2.33
2022-08-02T21:26:31.142Z,4.05
2022-08-02T21:29:03.188Z,2.30
2022-08-02T21:31:35.472Z,2.47
2022-08-02T21:34:21.797Z,3.30
2022-08-02T21:36:50.504Z,1.73
2022-08-02T21:39:18.330Z,1.77
2022-08-02T21:41:47.414Z,1.88
2022-08-02T21:44:17.201Z,3.80
2022-08-02T21:46:50.382Z,1.77
2022-08-02T21:49:20.185Z,2.17
2022-08-02T21:51:49.762Z,1.88
2022-08-02T21:54:21.871Z,2.22
2022-08-02T21:56:53.424Z,2.42
2022-08-02T21:59:26.331Z,2.63
2022-08-02T22:01:56.982Z,3.40
2022-08-02T22:04:26.271Z,1.88
2022-08-02T22:06:55.614Z,2.70
2022-08-02T22:09:43.122Z,4.60
2022-08-02T22:12:17.885Z,2.55
2022-08-02T22:14:55.031Z,2.70
2022-08-02T22:17:51.778Z,2.95
2022-08-02T22:20:18.383Z,2.45
2022-08-02T22:22:50.352Z,4.38
2022-08-02T22:25:21.701Z,3.63
2022-08-02T22:28:37.471Z,5.13
2022-08-02T22:30:58.092Z,4.30
2022-08-02T22:33:47.061Z,2.65
2022-08-02T22:36:28.695Z,4.53
2022-08-02T22:38:56.415Z,2.70
2022-08-02T22:41:24.145Z,2.88
2022-08-02T22:43:51.776Z,5.80
2022-08-02T22:46:19.402Z,4.95
2022-08-02T22:48:54.554Z,3.53
2022-08-02T22:51:22.504Z,4.45
2022-08-02T22:53:50.468Z,5.07
2022-08-02T22:56:18.373Z,3.00
2022-08-02T23:01:33.895Z,4.05
2022-08-02T23:04:01.535Z,2.88
2022-08-02T23:06:29.114Z,5.25
2022-08-02T23:08:56.627Z,6.05
2022-08-02T23:11:24.421Z,4.65
2022-08-02T23:13:51.905Z,3.20
2022-08-02T23:16:39.116Z,2.83
2022-08-02T23:19:25.260Z,2.25
2022-08-02T23:22:02.387Z,4.38
2022-08-02T23:24:33.377Z,4.07
2022-08-02T23:27:01.861Z,4.45
2022-08-02T23:29:29.624Z,3.47
2022-08-02T23:31:57.286Z,4.22
2022-08-02T23:34:27.150Z,3.78
2022-08-02T23:36:54.744Z,4.63
2022-08-02T23:39:22.434Z,3.92
2022-08-02T23:41:54.933Z,4.88
2022-08-02T23:44:24.206Z,4.43
2022-08-02T23:46:52.729Z,2.85
2022-08-02T23:49:22.102Z,5.15
2022-08-02T23:51:51.411Z,4.65
2022-08-02T23:54:19.772Z,3.50
2022-08-02T23:56:47.300Z,2.38
2022-08-02T23:59:15.607Z,5.68
